Time;durP1;ratioP1;P1;durP2;ratioP2;P2;SDS_P1;SDS_P2;PMS_P1;PMS_P2;Temp;Humidity;BMP_temperature;BMP_pressure;BME280_temperature;BME280_humidity;BME280_pressure;Samples;Min_cycle;Max_cycle;Signal;HPM_P1;HPM_P2
2023/06/16 00:02:13;;;;;;;8.73;5.57;;;26.30;57.10;;;;;;7383176;19;20002;-77
2023/06/16 00:04:43;;;;;;;10.15;5.60;;;26.10;57.20;;;;;;7383033;19;20006;-76
2023/06/16 00:07:12;;;;;;;8.60;5.55;;;26.10;57.50;;;;;;7383110;19;20003;-77
2023/06/16 00:09:43;;;;;;;7.07;5.45;;;26.00;57.70;;;;;;7382791;19;20386;-77
2023/06/16 00:12:12;;;;;;;8.65;5.72;;;25.90;57.80;;;;;;7383761;19;20082;-78
2023/06/16 00:14:41;;;;;;;14.10;5.55;;;25.90;58.10;;;;;;7403829;19;20027;-77
2023/06/16 00:17:10;;;;;;;8.40;5.95;;;25.90;58.40;;;;;;7381667;19;20014;-78
2023/06/16 00:19:40;;;;;;;9.15;6.03;;;25.90;58.70;;;;;;7387722;19;20003;-78
2023/06/16 00:22:10;;;;;;;6.00;4.95;;;25.90;59.00;;;;;;7391362;19;20062;-79
2023/06/16 00:24:39;;;;;;;9.40;5.47;;;25.90;58.90;;;;;;7385650;19;20110;-79
2023/06/16 00:27:11;;;;;;;9.63;5.65;;;25.90;58.50;;;;;;7387223;19;20821;-78
2023/06/16 00:29:40;;;;;;;13.55;6.22;;;25.80;58.50;;;;;;7409434;19;20018;-78
2023/06/16 00:32:11;;;;;;;8.85;5.75;;;25.80;58.60;;;;;;7390185;19;20010;-78
2023/06/16 00:34:40;;;;;;;7.68;5.50;;;25.70;58.80;;;;;;7389251;19;20390;-78
2023/06/16 00:37:09;;;;;;;7.85;5.50;;;25.70;58.80;;;;;;7390598;19;20006;-79
2023/06/16 00:39:40;;;;;;;9.60;5.95;;;25.70;59.00;;;;;;7389153;19;20007;-78
2023/06/16 00:42:11;;;;;;;21.73;5.97;;;25.60;59.20;;;;;;7391336;19;20043;-79
2023/06/16 00:44:40;;;;;;;8.25;5.57;;;25.40;59.30;;;;;;7409372;19;20014;-78
2023/06/16 00:47:09;;;;;;;7.93;5.30;;;25.40;59.20;;;;;;7388557;19;20230;-79
2023/06/16 00:49:38;;;;;;;9.38;5.80;;;25.40;59.20;;;;;;7388958;19;20058;-78
2023/06/16 00:52:10;;;;;;;10.75;5.50;;;25.40;59.30;;;;;;7389803;19;20250;-79
2023/06/16 00:54:39;;;;;;;11.65;5.47;;;25.30;59.30;;;;;;7390186;19;20006;-79
2023/06/16 00:57:13;;;;;;;10.05;5.05;;;25.30;59.40;;;;;;7387231;19;20132;-78
2023/06/16 00:59:42;;;;;;;10.13;5.68;;;25.30;59.50;;;;;;7408566;19;20006;-77
2023/06/16 01:02:13;;;;;;;9.75;5.80;;;25.30;59.50;;;;;;7389007;19;20386;-78
2023/06/16 01:04:42;;;;;;;7.97;5.90;;;25.30;59.80;;;;;;7388327;19;20074;-78
2023/06/16 01:07:20;;;;;;;9.95;5.40;;;25.20;59.70;;;;;;7387301;19;20019;-79
2023/06/16 01:09:56;;;;;;;11.10;5.38;;;25.20;60.00;;;;;;7388003;19;20015;-78
2023/06/16 01:12:36;;;;;;;11.23;5.30;;;25.10;60.10;;;;;;7387104;19;20011;-77
2023/06/16 01:15:10;;;;;;;11.20;6.00;;;25.10;60.00;;;;;;7384532;19;20011;-78
2023/06/16 01:17:44;;;;;;;11.75;5.93;;;25.10;60.00;;;;;;7408008;19;20006;-77
2023/06/16 01:20:17;;;;;;;7.47;5.03;;;25.10;59.80;;;;;;7383993;19;20071;-77
2023/06/16 01:23:01;;;;;;;11.48;5.55;;;25.00;60.00;;;;;;7385487;19;20307;-78
2023/06/16 01:25:38;;;;;;;8.45;5.15;;;24.90;60.40;;;;;;7385438;19;20365;-78
2023/06/16 01:28:08;;;;;;;7.85;5.57;;;24.90;60.40;;;;;;7385056;19;20006;-78
2023/06/16 01:30:40;;;;;;;9.75;5.88;;;25.00;60.50;;;;;;7385775;19;20003;-79
2023/06/16 01:33:09;;;;;;;9.77;5.70;;;24.90;60.40;;;;;;7386153;19;20293;-79
2023/06/16 01:35:39;;;;;;;8.10;5.53;;;24.90;60.40;;;;;;7403952;19;20003;-78
2023/06/16 01:38:08;;;;;;;8.05;5.50;;;24.90;60.50;;;;;;7387916;19;20060;-77
2023/06/16 01:40:40;;;;;;;12.30;5.75;;;24.70;60.60;;;;;;7385195;19;20023;-77
2023/06/16 01:43:09;;;;;;;8.93;5.50;;;24.70;61.40;;;;;;7385504;19;20069;-78
2023/06/16 01:45:39;;;;;;;9.60;5.82;;;24.80;60.80;;;;;;7383971;19;20059;-78
2023/06/16 01:48:08;;;;;;;8.35;5.55;;;24.70;60.90;;;;;;7385531;19;20007;-78
2023/06/16 01:50:37;;;;;;;11.98;5.40;;;24.70;60.80;;;;;;7406982;19;20055;-78
2023/06/16 01:53:06;;;;;;;7.63;4.93;;;24.70;61.00;;;;;;7385518;19;20019;-79
2023/06/16 01:55:35;;;;;;;24.02;5.65;;;24.70;61.10;;;;;;7386675;19;20006;-77
2023/06/16 01:58:07;;;;;;;8.70;5.85;;;24.60;61.10;;;;;;7386369;19;20002;-79
2023/06/16 02:00:40;;;;;;;8.82;5.97;;;24.60;62.10;;;;;;7386786;19;20003;-78
2023/06/16 02:03:12;;;;;;;8.85;5.57;;;24.60;61.60;;;;;;7385127;19;20383;-78
2023/06/16 02:05:46;;;;;;;8.50;5.50;;;24.60;61.70;;;;;;7408204;19;20385;-78
2023/06/16 02:08:17;;;;;;;8.07;5.07;;;24.50;61.60;;;;;;7387157;19;20010;-77
2023/06/16 02:10:47;;;;;;;13.15;6.28;;;24.50;61.90;;;;;;7385435;19;20010;-78
2023/06/16 02:13:18;;;;;;;13.07;5.78;;;24.50;62.10;;;;;;7387286;19;20002;-78
2023/06/16 02:15:47;;;;;;;9.68;5.88;;;24.50;62.30;;;;;;7386670;19;20752;-79
2023/06/16 02:18:16;;;;;;;12.60;5.97;;;24.40;62.50;;;;;;7386907;19;20002;-78
2023/06/16 02:20:47;;;;;;;9.13;5.15;;;24.30;62.50;;;;;;7410642;19;20010;-80
2023/06/16 02:23:15;;;;;;;8.82;5.80;;;24.30;62.70;;;;;;7388506;19;20006;-80
2023/06/16 02:25:44;;;;;;;11.02;6.13;;;24.30;62.90;;;;;;7388631;19;20015;-78
2023/06/16 02:28:13;;;;;;;9.98;5.53;;;24.30;63.20;;;;;;7393483;19;20007;-79
2023/06/16 02:30:44;;;;;;;12.27;5.32;;;24.30;63.10;;;;;;7402107;19;20023;-78
2023/06/16 02:33:15;;;;;;;11.45;5.68;;;24.20;62.90;;;;;;7395233;19;20117;-79
2023/06/16 02:35:44;;;;;;;7.43;5.38;;;24.20;63.00;;;;;;7412678;19;20040;-79
2023/06/16 02:38:13;;;;;;;10.23;5.55;;;24.20;63.00;;;;;;7387198;19;20015;-79
2023/06/16 02:40:43;;;;;;;7.45;4.53;;;24.10;63.10;;;;;;7387729;19;20010;-79
2023/06/16 02:43:12;;;;;;;17.67;5.43;;;24.10;63.10;;;;;;7387905;19;20035;-78
2023/06/16 02:45:44;;;;;;;8.65;5.47;;;24.10;63.30;;;;;;7387131;19;19999;-80
2023/06/16 02:48:12;;;;;;;;;;;24.00;63.30;;;;;;7385605;19;20010;-78
2023/06/16 02:50:43;;;;;;;11.27;5.68;;;24.00;63.60;;;;;;7408994;19;19918;-79
2023/06/16 02:53:13;;;;;;;8.77;5.40;;;23.90;63.50;;;;;;7381840;19;20006;-78
2023/06/16 02:55:44;;;;;;;8.60;5.45;;;24.00;63.60;;;;;;7381954;19;20017;-76
2023/06/16 02:58:12;;;;;;;9.30;5.65;;;23.90;63.80;;;;;;7381573;19;20369;-77
2023/06/16 03:00:44;;;;;;;10.68;6.05;;;23.90;64.10;;;;;;7380881;19;20007;-77
2023/06/16 03:03:14;;;;;;;;;;;23.90;64.30;;;;;;7382994;19;20365;-76
2023/06/16 03:05:45;;;;;;;10.07;5.67;;;23.90;64.30;;;;;;7404675;19;19911;-77
2023/06/16 03:08:15;;;;;;;10.20;6.28;;;23.90;64.20;;;;;;7381031;19;20385;-77
2023/06/16 03:10:44;;;;;;;7.90;5.50;;;23.80;64.10;;;;;;7383473;19;20007;-77
2023/06/16 03:13:13;;;;;;;11.40;6.43;;;23.80;64.30;;;;;;7383763;19;20019;-78
2023/06/16 03:15:44;;;;;;;10.88;6.20;;;23.80;64.70;;;;;;7386088;19;20003;-78
2023/06/16 03:18:13;;;;;;;14.40;6.28;;;23.70;64.80;;;;;;7381877;19;20042;-77
2023/06/16 03:20:45;;;;;;;8.98;6.05;;;23.70;64.80;;;;;;7404970;19;20007;-76
2023/06/16 03:23:16;;;;;;;8.73;5.57;;;23.70;64.70;;;;;;7382354;19;20011;-77
2023/06/16 03:25:44;;;;;;;11.10;5.47;;;23.70;64.60;;;;;;7380589;19;20007;-77
2023/06/16 03:28:13;;;;;;;14.40;6.78;;;23.70;64.60;;;;;;7381494;19;20569;-77
2023/06/16 03:30:45;;;;;;;8.68;6.43;;;23.70;64.80;;;;;;7381400;19;20007;-77
2023/06/16 03:33:14;;;;;;;12.65;5.43;;;23.70;65.10;;;;;;7383829;19;20018;-78
2023/06/16 03:35:44;;;;;;;10.02;6.30;;;23.70;65.20;;;;;;7404210;19;20011;-77
2023/06/16 03:38:14;;;;;;;7.78;6.00;;;23.70;65.20;;;;;;7385137;19;20024;-78
2023/06/16 03:40:43;;;;;;;11.13;5.55;;;23.70;65.00;;;;;;7384705;19;20010;-76
2023/06/16 03:43:11;;;;;;;15.00;5.78;;;23.70;64.70;;;;;;7380623;19;20007;-76
2023/06/16 03:45:40;;;;;;;8.35;5.78;;;23.70;64.90;;;;;;7378682;19;20006;-76
2023/06/16 03:48:11;;;;;;;10.77;5.88;;;23.70;64.80;;;;;;7379588;19;20023;-76
2023/06/16 03:50:40;;;;;;;;;;;23.60;64.90;;;;;;7400904;19;20402;-76
2023/06/16 03:53:09;;;;;;;10.02;6.47;;;23.60;64.90;;;;;;7379108;19;19927;-76
2023/06/16 03:55:40;;;;;;;8.23;5.70;;;23.60;64.90;;;;;;7379214;19;20010;-76
2023/06/16 03:58:10;;;;;;;12.50;5.90;;;23.50;65.00;;;;;;7378979;19;20019;-76
2023/06/16 04:00:38;;;;;;;12.98;6.05;;;23.50;65.30;;;;;;7386101;19;20006;-76
2023/06/16 04:03:07;;;;;;;10.07;5.47;;;23.50;65.30;;;;;;7384297;19;20007;-76
2023/06/16 04:05:38;;;;;;;17.08;5.57;;;23.50;65.40;;;;;;7406945;19;20066;-77
2023/06/16 04:08:07;;;;;;;;;;;23.50;65.60;;;;;;7387683;19;20011;-77
2023/06/16 04:10:36;;;;;;;16.25;6.10;;;23.50;65.40;;;;;;7387175;19;20003;-77
2023/06/16 04:13:05;;;;;;;8.52;5.75;;;23.50;65.40;;;;;;7387907;19;20391;-77
2023/06/16 04:15:34;;;;;;;9.55;5.30;;;23.50;65.50;;;;;;7384855;19;20224;-77
2023/06/16 04:18:03;;;;;;;10.85;5.38;;;23.40;65.50;;;;;;7383697;19;20030;-76
2023/06/16 04:20:34;;;;;;;11.60;6.05;;;23.30;65.80;;;;;;7405384;19;20019;-77
2023/06/16 04:23:09;;;;;;;11.93;6.47;;;23.30;65.90;;;;;;7387126;19;20014;-77
2023/06/16 04:25:38;;;;;;;10.50;6.85;;;23.30;66.10;;;;;;7390513;19;20378;-77
2023/06/16 04:28:14;;;;;;;14.20;6.32;;;23.30;66.30;;;;;;7390607;19;20007;-77
2023/06/16 04:30:43;;;;;;;11.65;6.72;;;23.30;66.40;;;;;;7386496;19;20003;-77
2023/06/16 04:33:13;;;;;;;13.55;6.63;;;23.30;66.50;;;;;;7384965;19;19999;-77
2023/06/16 04:35:41;;;;;;;15.98;6.70;;;23.30;66.90;;;;;;7409377;19;20054;-77
2023/06/16 04:38:17;;;;;;;9.55;5.90;;;23.30;67.00;;;;;;7388607;19;20373;-77
2023/06/16 04:40:46;;;;;;;14.48;6.45;;;23.30;67.20;;;;;;7387752;19;20020;-76
2023/06/16 04:43:20;;;;;;;10.98;6.22;;;23.40;66.90;;;;;;7405297;19;20018;-77
2023/06/16 04:45:49;;;;;;;9.13;6.03;;;23.30;66.70;;;;;;7397872;19;20280;-77
2023/06/16 04:48:20;;;;;;;9.68;6.55;;;23.40;67.10;;;;;;7387309;19;20021;-77
2023/06/16 04:50:49;;;;;;;9.32;5.80;;;23.40;67.20;;;;;;7399076;19;20003;-77
2023/06/16 04:53:20;;;;;;;13.15;6.28;;;23.60;67.20;;;;;;7407738;19;19999;-77
2023/06/16 04:55:49;;;;;;;;;;;23.50;66.50;;;;;;7388738;19;20006;-77
2023/06/16 04:58:18;;;;;;;14.77;6.80;;;23.60;66.60;;;;;;7388761;19;19914;-77
2023/06/16 05:00:48;;;;;;;11.35;6.50;;;23.60;66.80;;;;;;7387116;19;20006;-77
2023/06/16 05:03:17;;;;;;;9.45;6.10;;;23.60;66.80;;;;;;7388094;19;20006;-79
2023/06/16 05:05:45;;;;;;;10.65;6.45;;;23.70;66.90;;;;;;7408578;19;20228;-77
2023/06/16 05:08:14;;;;;;;10.05;6.55;;;23.60;66.80;;;;;;7386064;19;20291;-77
2023/06/16 05:10:46;;;;;;;13.07;6.65;;;23.60;67.00;;;;;;7383443;19;20011;-77
2023/06/16 05:13:17;;;;;;;9.48;6.10;;;23.70;67.20;;;;;;7386509;19;20153;-76
2023/06/16 05:15:45;;;;;;;32.25;6.72;;;23.70;67.10;;;;;;7383937;19;20051;-76
2023/06/16 05:18:14;;;;;;;11.27;6.40;;;23.70;67.00;;;;;;7385748;19;20095;-76
2023/06/16 05:20:43;;;;;;;15.80;7.18;;;23.70;67.10;;;;;;7406208;19;20027;-76
2023/06/16 05:23:12;;;;;;;14.23;6.20;;;23.80;67.10;;;;;;7389861;19;20417;-77
2023/06/16 05:25:40;;;;;;;15.48;5.85;;;23.80;67.20;;;;;;7385089;19;20030;-76
2023/06/16 05:28:12;;;;;;;18.42;6.93;;;23.80;67.40;;;;;;7387001;19;20006;-77
2023/06/16 05:30:41;;;;;;;;;;;23.90;67.50;;;;;;7385258;19;20007;-78
2023/06/16 05:33:10;;;;;;;13.48;5.93;;;23.90;67.50;;;;;;7386620;19;19933;-76
2023/06/16 05:35:39;;;;;;;10.57;5.78;;;23.90;67.30;;;;;;7408397;19;20020;-76
2023/06/16 05:38:08;;;;;;;10.20;6.50;;;23.90;67.50;;;;;;7387105;19;20026;-76
2023/06/16 05:40:39;;;;;;;15.70;6.05;;;24.00;67.70;;;;;;7382180;19;20031;-76
2023/06/16 05:43:13;;;;;;;13.63;6.28;;;24.00;67.80;;;;;;7384704;19;20026;-76
2023/06/16 05:45:42;;;;;;;15.52;6.68;;;24.10;67.90;;;;;;7382836;19;20007;-76
2023/06/16 05:48:10;;;;;;;12.55;5.72;;;24.10;68.10;;;;;;7382378;19;20232;-77
2023/06/16 05:50:40;;;;;;;11.98;6.22;;;24.10;68.10;;;;;;7405671;19;20117;-76
2023/06/16 05:53:08;;;;;;;14.95;6.10;;;24.20;68.10;;;;;;7383856;19;20046;-77
2023/06/16 05:55:37;;;;;;;18.15;6.30;;;24.30;68.10;;;;;;7384478;19;20033;-77
2023/06/16 05:58:07;;;;;;;22.58;7.00;;;24.30;68.10;;;;;;7384284;19;20010;-77
2023/06/16 06:00:38;;;;;;;15.48;6.05;;;24.40;68.20;;;;;;7387129;19;20006;-78
2023/06/16 06:03:07;;;;;;;;;;;24.50;68.20;;;;;;7383638;19;20369;-77
2023/06/16 06:05:36;;;;;;;10.38;6.07;;;24.60;68.20;;;;;;7403547;19;19915;-77
2023/06/16 06:08:05;;;;;;;17.05;6.53;;;24.60;67.90;;;;;;7382702;19;20036;-78
2023/06/16 06:10:33;;;;;;;10.93;5.80;;;24.70;68.00;;;;;;7383272;19;20011;-77
2023/06/16 06:13:05;;;;;;;16.45;6.07;;;24.80;69.00;;;;;;7383446;19;20034;-77
2023/06/16 06:15:34;;;;;;;8.55;5.82;;;24.80;68.30;;;;;;7383957;19;20034;-77
2023/06/16 06:18:06;;;;;;;15.73;6.53;;;24.90;68.50;;;;;;7381300;19;20007;-77
2023/06/16 06:20:35;;;;;;;16.85;6.03;;;24.90;68.30;;;;;;7403401;19;20007;-77
2023/06/16 06:23:03;;;;;;;12.60;6.68;;;25.00;68.10;;;;;;7382188;19;20010;-77
2023/06/16 06:25:32;;;;;;;13.52;5.70;;;25.10;68.30;;;;;;7382475;19;20022;-77
2023/06/16 06:28:05;;;;;;;18.20;6.50;;;25.10;68.40;;;;;;7381825;19;20346;-77
2023/06/16 06:30:36;;;;;;;17.60;6.47;;;25.20;68.40;;;;;;7382338;19;20018;-77
2023/06/16 06:33:07;;;;;;;15.75;6.90;;;25.20;68.30;;;;;;7381736;19;20021;-76
2023/06/16 06:35:36;;;;;;;;;;;25.20;68.30;;;;;;7403349;19;20039;-77
2023/06/16 06:38:05;;;;;;;11.57;6.88;;;25.30;68.50;;;;;;7382952;19;19939;-76
2023/06/16 06:40:35;;;;;;;10.05;6.50;;;25.20;68.80;;;;;;7380828;19;20013;-77
2023/06/16 06:43:06;;;;;;;15.07;5.55;;;25.20;69.40;;;;;;7385004;19;20019;-78
2023/06/16 06:45:35;;;;;;;8.95;5.53;;;25.20;69.20;;;;;;7383141;19;20078;-77
2023/06/16 06:48:06;;;;;;;17.08;6.25;;;25.30;69.30;;;;;;7381396;19;20011;-77
2023/06/16 06:50:35;;;;;;;13.00;6.13;;;25.30;68.90;;;;;;7401367;19;19999;-77
2023/06/16 06:53:04;;;;;;;12.80;5.97;;;25.40;68.80;;;;;;7381526;19;20083;-77
2023/06/16 06:55:33;;;;;;;18.58;6.53;;;25.40;68.60;;;;;;7382616;19;20285;-76
2023/06/16 06:58:02;;;;;;;13.35;6.63;;;25.60;68.60;;;;;;7395794;19;20134;-75
2023/06/16 07:00:30;;;;;;;21.48;7.20;;;25.60;69.20;;;;;;7394363;19;20011;-76
2023/06/16 07:03:07;;;;;;;15.32;6.50;;;25.70;68.40;;;;;;7392642;19;20030;-80
2023/06/16 07:05:36;;;;;;;16.10;7.35;;;25.70;68.30;;;;;;7407635;19;20017;-78
2023/06/16 07:08:05;;;;;;;22.27;6.63;;;25.80;68.40;;;;;;7388839;19;20014;-77
2023/06/16 07:10:36;;;;;;;13.80;6.88;;;25.90;68.40;;;;;;7386005;19;20020;-77
2023/06/16 07:13:08;;;;;;;17.52;7.47;;;26.00;68.30;;;;;;7399866;19;20006;-77
2023/06/16 07:15:37;;;;;;;18.98;6.68;;;26.10;68.20;;;;;;7400671;19;20003;-77
2023/06/16 07:18:08;;;;;;;14.07;5.95;;;26.10;67.60;;;;;;7385442;19;20102;-76
2023/06/16 07:20:37;;;;;;;17.73;6.07;;;26.20;67.40;;;;;;7401577;19;20018;-76
2023/06/16 07:23:06;;;;;;;15.52;6.22;;;26.20;67.90;;;;;;7380725;19;20007;-77
2023/06/16 07:25:36;;;;;;;14.32;5.43;;;26.30;66.60;;;;;;7380576;19;20003;-77
2023/06/16 07:28:06;;;;;;;14.38;5.70;;;26.30;65.80;;;;;;7380371;19;20280;-76
2023/06/16 07:30:35;;;;;;;19.40;5.95;;;26.40;63.10;;;;;;7380904;19;20007;-76
2023/06/16 07:33:03;;;;;;;8.82;5.70;;;26.40;62.30;;;;;;7379611;19;20011;-75
2023/06/16 07:35:37;;;;;;;13.00;5.85;;;26.40;62.00;;;;;;7414893;19;20219;-79
2023/06/16 07:38:06;;;;;;;7.40;5.68;;;26.40;61.30;;;;;;7396027;19;20007;-76
2023/06/16 07:40:34;;;;;;;17.20;5.50;;;26.40;60.70;;;;;;7389966;19;20003;-80
2023/06/16 07:43:03;;;;;;;15.05;5.90;;;26.50;60.80;;;;;;7386522;19;20015;-76
2023/06/16 07:45:34;;;;;;;16.35;5.63;;;26.60;60.60;;;;;;7386248;19;20377;-76
2023/06/16 07:48:07;;;;;;;17.50;5.40;;;26.60;60.40;;;;;;7387237;19;20137;-78
2023/06/16 07:50:39;;;;;;;10.07;5.38;;;26.60;60.20;;;;;;7414866;19;20013;-77
2023/06/16 07:53:11;;;;;;;9.70;5.53;;;26.70;59.80;;;;;;7396350;19;19999;-76
2023/06/16 07:55:40;;;;;;;15.75;5.72;;;26.70;59.40;;;;;;7397118;19;20011;-75
2023/06/16 07:58:09;;;;;;;16.40;5.68;;;26.70;59.30;;;;;;7395774;19;20078;-76
2023/06/16 08:00:40;;;;;;;15.68;5.75;;;26.70;59.20;;;;;;7390226;19;20002;-76
2023/06/16 08:03:08;;;;;;;17.38;5.55;;;26.80;59.30;;;;;;7393742;19;20030;-76
2023/06/16 08:05:41;;;;;;;8.05;5.28;;;26.80;59.60;;;;;;7414626;19;20010;-78
2023/06/16 08:08:10;;;;;;;22.63;5.95;;;26.80;58.90;;;;;;7396948;19;20013;-76
2023/06/16 08:10:41;;;;;;;7.97;5.53;;;26.90;58.50;;;;;;7396664;19;20022;-75
2023/06/16 08:13:10;;;;;;;10.40;5.90;;;26.90;58.20;;;;;;7396159;19;20011;-76
2023/06/16 08:15:38;;;;;;;9.77;4.95;;;27.00;57.90;;;;;;7389986;19;20006;-76
2023/06/16 08:18:07;;;;;;;12.57;5.85;;;27.00;57.50;;;;;;7388365;19;20006;-77
2023/06/16 08:20:36;;;;;;;14.05;5.30;;;27.00;56.60;;;;;;7406808;19;20014;-75
2023/06/16 08:23:07;;;;;;;12.20;5.30;;;27.00;55.80;;;;;;7388101;19;20010;-76
2023/06/16 08:25:47;;;;;;;;;;;;;;;;;;;;;
2023/06/16 08:28:22;;;;;;;15.80;5.40;;;27.10;55.60;;;;;;7385708;19;19999;-78
2023/06/16 08:30:51;;;;;;;17.63;5.95;;;27.10;56.00;;;;;;7387495;19;20046;-75
2023/06/16 08:33:21;;;;;;;9.52;6.03;;;27.10;56.40;;;;;;7386115;19;20003;-73
2023/06/16 08:35:50;;;;;;;13.13;6.43;;;27.10;56.10;;;;;;7386752;19;20293;-73
2023/06/16 08:38:21;;;;;;;14.73;6.47;;;27.10;55.80;;;;;;7407578;19;20007;-73
2023/06/16 08:40:50;;;;;;;;;;;27.10;55.70;;;;;;7385444;19;20071;-73
2023/06/16 08:43:19;;;;;;;;;;;27.20;56.10;;;;;;7385918;19;19910;-72
2023/06/16 08:45:47;;;;;;;;;;;27.30;56.10;;;;;;7383384;19;19933;-72
2023/06/16 08:48:16;;;;;;;;;;;27.40;55.40;;;;;;7386448;19;19911;-73
2023/06/16 08:50:44;;;;;;;;;;;27.40;54.80;;;;;;7407755;19;19918;-73
2023/06/16 08:53:13;;;;;;;;;;;27.40;54.70;;;;;;7385029;19;19907;-73
2023/06/16 08:55:44;;;;;;;;;;;27.50;54.50;;;;;;7385428;19;19911;-74
2023/06/16 08:58:15;;;;;;;;;;;27.50;54.50;;;;;;7385745;19;19907;-74
2023/06/16 09:00:46;;;;;;;;;;;27.50;54.40;;;;;;7384887;19;20298;-73
2023/06/16 09:03:17;;;;;;;;;;;27.60;54.10;;;;;;7385983;19;20001;-74
2023/06/16 09:05:46;;;;;;;;;;;27.50;53.90;;;;;;7408471;19;20126;-74
2023/06/16 09:08:15;;;;;;;;;;;27.60;54.00;;;;;;7385830;19;19922;-75
2023/06/16 09:10:46;;;;;;;;;;;27.60;53.80;;;;;;7401578;19;19950;-74
2023/06/16 09:13:16;;;;;;;;;;;27.60;53.80;;;;;;7391263;19;19915;-74
2023/06/16 09:15:46;;;;;;;;;;;27.60;54.00;;;;;;7387666;19;19926;-74
2023/06/16 09:18:15;;;;;;;;;;;27.60;53.80;;;;;;7385647;19;19903;-75
2023/06/16 09:20:51;;;;;;;;;;;27.70;54.00;;;;;;7407080;19;19911;-75
2023/06/16 09:23:31;;;;;;;;;;;27.70;53.60;;;;;;7384685;19;19919;-73
2023/06/16 09:26:02;;;;;;;;;;;27.80;52.60;;;;;;7385148;19;19926;-77
2023/06/16 09:28:36;;;;;;;;;;;27.80;51.40;;;;;;7383967;19;19911;-75
2023/06/16 09:31:05;;;;;;;;;;;27.80;51.30;;;;;;7384569;19;19926;-74
2023/06/16 09:33:34;;;;;;;;;;;27.90;51.40;;;;;;7382861;19;19938;-75
2023/06/16 09:36:03;;;;;;;;;;;27.90;51.20;;;;;;7383264;19;19966;-75
2023/06/16 09:38:34;;;;;;;;;;;27.90;51.50;;;;;;7405543;19;19928;-74
2023/06/16 09:41:15;;;;;;;;;;;27.90;51.50;;;;;;7383159;19;20278;-74
2023/06/16 09:43:44;;;;;;;;;;;28.00;51.90;;;;;;7382706;19;19935;-74
2023/06/16 09:46:15;;;;;;;;;;;28.00;51.40;;;;;;7384192;19;19913;-75
2023/06/16 09:48:47;;;;;;;;;;;28.00;50.40;;;;;;7382783;19;19903;-75
2023/06/16 09:51:17;;;;;;;;;;;28.10;50.10;;;;;;7383930;19;20237;-74
2023/06/16 09:53:46;;;;;;;;;;;28.00;50.00;;;;;;7405261;19;19935;-74
2023/06/16 09:56:19;;;;;;;;;;;28.00;50.20;;;;;;7382272;19;19903;-74
2023/06/16 09:58:49;;;;;;;;;;;28.00;49.90;;;;;;7383194;19;19914;-77
2023/06/16 10:01:19;;;;;;;;;;;28.10;49.90;;;;;;7383715;19;19911;-74
2023/06/16 10:03:50;;;;;;;;;;;28.10;49.90;;;;;;7383370;19;20064;-73
2023/06/16 10:06:20;;;;;;;;;;;28.20;49.90;;;;;;7381973;19;19915;-73
2023/06/16 10:08:50;;;;;;;;;;;28.30;50.00;;;;;;7393233;19;19927;-73
2023/06/16 10:11:22;;;;;;;;;;;28.30;48.60;;;;;;7403433;19;19910;-74
2023/06/16 10:13:52;;;;;;;;;;;28.30;48.80;;;;;;7382569;19;19911;-73
2023/06/16 10:16:23;;;;;;;;;;;28.20;47.40;;;;;;7383421;19;19970;-74
2023/06/16 10:18:52;;;;;;;;;;;28.20;47.60;;;;;;7382961;19;20250;-73
2023/06/16 10:21:22;;;;;;;;;;;28.30;48.10;;;;;;7380680;19;20180;-72
2023/06/16 10:23:51;;;;;;;;;;;28.30;48.10;;;;;;7380676;19;20226;-74
2023/06/16 10:26:22;;;;;;;;;;;28.30;47.60;;;;;;7403344;19;19915;-74
2023/06/16 10:28:51;;;;;;;;;;;28.40;48.30;;;;;;7382155;19;19903;-75
2023/06/16 10:31:20;;;;;;;;;;;28.50;48.20;;;;;;7383132;19;19927;-74
2023/06/16 10:33:55;;;;;;;;;;;28.50;47.60;;;;;;7382744;19;19911;-73
2023/06/16 10:36:24;;;;;;;;;;;28.50;48.10;;;;;;7382710;19;19911;-75
2023/06/16 10:38:59;;;;;;;;;;;28.40;47.00;;;;;;7382725;19;19911;-74
2023/06/16 10:41:32;;;;;;;;;;;28.50;47.50;;;;;;7402729;19;19911;-73
2023/06/16 10:44:15;;;;;;;;;;;28.60;47.10;;;;;;7384154;19;19922;-74
2023/06/16 10:46:43;;;;;;;;;;;28.60;47.30;;;;;;7384183;19;19924;-73
2023/06/16 10:49:18;;;;;;;;;;;28.60;47.50;;;;;;7382676;19;19951;-74
2023/06/16 10:51:52;;;;;;;;;;;28.60;47.50;;;;;;7382018;19;19927;-74
2023/06/16 10:54:35;;;;;;;;;;;28.60;47.60;;;;;;7380979;19;19957;-73
2023/06/16 10:57:08;;;;;;;;;;;28.60;47.90;;;;;;7381930;19;20200;-74
2023/06/16 10:59:51;;;;;;;;;;;28.70;48.00;;;;;;7403895;19;19966;-74
2023/06/16 11:02:20;;;;;;;;;;;28.80;48.10;;;;;;7380699;19;19910;-75
2023/06/16 11:05:04;;;;;;;;;;;28.90;47.90;;;;;;7381265;19;20007;-74
2023/06/16 11:07:34;;;;;;;;;;;28.90;47.50;;;;;;7380673;19;19930;-74
2023/06/16 11:10:02;;;;;;;;;;;29.00;47.70;;;;;;7382139;19;19919;-76
2023/06/16 11:12:34;;;;;;;;;;;29.10;47.10;;;;;;7384841;19;19911;-73
2023/06/16 11:15:02;;;;;;;;;;;29.10;46.70;;;;;;7383640;19;19915;-72
2023/06/16 11:17:31;;;;;;;;;;;29.10;47.20;;;;;;7402942;19;19914;-75
2023/06/16 11:20:01;;;;;;;;;;;29.00;47.00;;;;;;7384560;19;19914;-74
2023/06/16 11:22:30;;;;;;;;;;;29.20;46.70;;;;;;7389906;19;19925;-74
2023/06/16 11:24:58;;;;;;;;;;;29.20;47.30;;;;;;7388101;19;19915;-74
2023/06/16 11:27:29;;;;;;;;;;;29.10;46.10;;;;;;7385612;19;19938;-74
2023/06/16 11:30:00;;;;;;;;;;;29.10;46.40;;;;;;7385101;19;19907;-74
2023/06/16 11:32:32;;;;;;;;;;;29.10;46.10;;;;;;7405465;19;19959;-75
2023/06/16 11:35:01;;;;;;;;;;;29.10;46.20;;;;;;7380977;19;19935;-76
2023/06/16 11:37:41;;;;;;;;;;;29.10;46.40;;;;;;7380559;19;19903;-74
2023/06/16 11:40:11;;;;;;;;;;;29.20;46.70;;;;;;7381160;19;19928;-75
2023/06/16 11:42:39;;;;;;;;;;;29.30;45.10;;;;;;7380554;19;19910;-77
2023/06/16 11:45:11;;;;;;;;;;;29.50;45.20;;;;;;7378901;19;22420;-76
2023/06/16 11:47:40;;;;;;;;;;;29.50;45.20;;;;;;7401982;19;19915;-76
2023/06/16 11:50:09;;;;;;;;;;;29.50;45.80;;;;;;7380026;19;20231;-76
2023/06/16 11:52:37;;;;;;;;;;;29.50;45.90;;;;;;7379866;19;19974;-74
2023/06/16 11:55:06;;;;;;;;;;;29.70;46.50;;;;;;7381543;19;20223;-76
2023/06/16 11:57:38;;;;;;;;;;;29.80;46.30;;;;;;7380712;19;19907;-74
2023/06/16 12:00:08;;;;;;;;;;;29.90;46.40;;;;;;7378181;19;19911;-74
2023/06/16 12:02:39;;;;;;;;;;;30.00;46.50;;;;;;7400702;19;19935;-73
2023/06/16 12:05:10;;;;;;;;;;;30.20;45.90;;;;;;7379801;19;19928;-74
2023/06/16 12:07:40;;;;;;;;;;;30.30;45.80;;;;;;7380120;19;19915;-75
2023/06/16 12:10:09;;;;;;;;;;;30.30;45.00;;;;;;7378990;19;20227;-77
2023/06/16 12:12:40;;;;;;;;;;;30.20;44.70;;;;;;7378498;19;19911;-75
2023/06/16 12:15:09;;;;;;;;;;;30.20;44.80;;;;;;7381379;19;19928;-76
2023/06/16 12:17:40;;;;;;;;;;;30.20;45.30;;;;;;7404856;19;19928;-76
2023/06/16 12:20:10;;;;;;;;;;;30.20;45.10;;;;;;7386275;19;19903;-77
2023/06/16 12:22:39;;;;;;;;;;;30.20;45.60;;;;;;7386946;19;19923;-75
2023/06/16 12:25:11;;;;;;;;;;;30.20;44.70;;;;;;7387418;19;19907;-76
2023/06/16 12:27:39;;;;;;;;;;;30.20;44.70;;;;;;7390283;19;19932;-75
2023/06/16 12:30:08;;;;;;;;;;;30.20;45.30;;;;;;7390334;19;19915;-77
2023/06/16 12:32:40;;;;;;;;;;;30.30;45.90;;;;;;7411809;19;19931;-75
2023/06/16 12:35:08;;;;;;;;;;;30.40;45.40;;;;;;7389803;19;19903;-76
2023/06/16 12:37:42;;;;;;;;;;;30.40;45.60;;;;;;7389055;19;19907;-77
2023/06/16 12:40:11;;;;;;;;;;;30.50;45.40;;;;;;7386724;19;20119;-75
2023/06/16 12:42:40;;;;;;;;;;;30.60;45.30;;;;;;7386253;19;19907;-77
2023/06/16 12:45:09;;;;;;;;;;;30.70;45.00;;;;;;7384182;19;19956;-76
2023/06/16 12:47:42;;;;;;;;;;;30.90;44.80;;;;;;7407160;19;20196;-75
2023/06/16 12:50:12;;;;;;;;;;;31.00;44.70;;;;;;7385649;19;19925;-76
2023/06/16 12:52:40;;;;;;;;;;;31.10;44.40;;;;;;7385449;19;19930;-75
2023/06/16 12:55:09;;;;;;;;;;;31.20;44.20;;;;;;7385668;19;19966;-75
2023/06/16 12:57:39;;;;;;;;;;;31.30;43.60;;;;;;7386072;19;19965;-74
2023/06/16 13:00:08;;;;;;;;;;;31.40;43.60;;;;;;7384993;19;19975;-77
2023/06/16 13:02:39;;;;;;;;;;;31.40;43.40;;;;;;7406310;19;19966;-76
2023/06/16 13:05:08;;;;;;;;;;;31.50;43.90;;;;;;7385319;19;19906;-77
2023/06/16 13:07:47;;;;;;;;;;;31.50;43.50;;;;;;7388024;19;19959;-78
2023/06/16 13:10:16;;;;;;;;;;;31.50;43.10;;;;;;7386839;19;19914;-77
2023/06/16 13:12:44;;;;;;;;;;;31.40;43.30;;;;;;7387883;19;19924;-78
2023/06/16 13:15:13;;;;;;;;;;;31.40;43.60;;;;;;7384266;19;20178;-77
2023/06/16 13:17:44;;;;;;;;;;;31.40;43.60;;;;;;7405755;19;19907;-77
2023/06/16 13:20:13;;;;;;;;;;;31.40;44.00;;;;;;7384360;19;19931;-77
2023/06/16 13:22:41;;;;;;;;;;;31.40;43.10;;;;;;7384173;19;19924;-77
2023/06/16 13:25:10;;;;;;;;;;;31.40;43.00;;;;;;7393213;19;19915;-74
2023/06/16 13:27:38;;;;;;;;;;;31.40;43.20;;;;;;7393836;19;19919;-75
2023/06/16 13:30:08;;;;;;;;;;;31.30;42.60;;;;;;7390323;19;19919;-76
2023/06/16 13:32:36;;;;;;;;;;;31.20;42.70;;;;;;7402541;19;19911;-75
2023/06/16 13:35:08;;;;;;;;;;;31.20;42.90;;;;;;7384880;19;19910;-76